sensor_id;sensor_type;location;lat;lon;timestamp;P1;durP1;ratioP1;P2;durP2;ratioP2
13374;SDS011;6756;51.354;15.754;2023-07-28T00:00:24;4.27;;;2.40;;
13374;SDS011;6756;51.354;15.754;2023-07-28T00:04:25;2.60;;;2.37;;
13374;SDS011;6756;51.354;15.754;2023-07-28T00:08:25;2.90;;;2.70;;
13374;SDS011;6756;51.354;15.754;2023-07-28T00:12:26;2.57;;;2.37;;
13374;SDS011;6756;51.354;15.754;2023-07-28T00:16:27;3.57;;;2.57;;
13374;SDS011;6756;51.354;15.754;2023-07-28T00:20:28;4.73;;;2.43;;
13374;SDS011;6756;51.354;15.754;2023-07-28T00:24:32;3.37;;;2.73;;
13374;SDS011;6756;51.354;15.754;2023-07-28T00:28:33;3.27;;;2.67;;
13374;SDS011;6756;51.354;15.754;2023-07-28T00:32:34;4.03;;;2.37;;
13374;SDS011;6756;51.354;15.754;2023-07-28T00:36:34;4.63;;;2.33;;
13374;SDS011;6756;51.354;15.754;2023-07-28T00:40:35;2.70;;;2.50;;
13374;SDS011;6756;51.354;15.754;2023-07-28T00:44:36;3.00;;;2.70;;
13374;SDS011;6756;51.354;15.754;2023-07-28T00:48:37;3.00;;;2.57;;
13374;SDS011;6756;51.354;15.754;2023-07-28T00:52:42;4.40;;;2.80;;
13374;SDS011;6756;51.354;15.754;2023-07-28T00:56:43;3.17;;;2.87;;
13374;SDS011;6756;51.354;15.754;2023-07-28T01:00:45;2.50;;;2.30;;
13374;SDS011;6756;51.354;15.754;2023-07-28T01:04:49;2.53;;;2.33;;
13374;SDS011;6756;51.354;15.754;2023-07-28T01:09:08;3.37;;;2.77;;
13374;SDS011;6756;51.354;15.754;2023-07-28T01:13:14;3.27;;;2.90;;
13374;SDS011;6756;51.354;15.754;2023-07-28T01:17:15;2.97;;;2.50;;
13374;SDS011;6756;51.354;15.754;2023-07-28T01:21:25;3.40;;;2.70;;
13374;SDS011;6756;51.354;15.754;2023-07-28T01:29:50;3.73;;;2.73;;
13374;SDS011;6756;51.354;15.754;2023-07-28T01:33:52;3.03;;;2.73;;
13374;SDS011;6756;51.354;15.754;2023-07-28T01:37:52;2.97;;;2.17;;
13374;SDS011;6756;51.354;15.754;2023-07-28T01:41:54;4.27;;;2.70;;
13374;SDS011;6756;51.354;15.754;2023-07-28T01:45:54;3.57;;;2.43;;
13374;SDS011;6756;51.354;15.754;2023-07-28T01:49:55;5.43;;;2.73;;
13374;SDS011;6756;51.354;15.754;2023-07-28T01:53:56;2.70;;;2.50;;
13374;SDS011;6756;51.354;15.754;2023-07-28T01:57:58;2.93;;;2.40;;
13374;SDS011;6756;51.354;15.754;2023-07-28T02:01:59;3.87;;;2.53;;
13374;SDS011;6756;51.354;15.754;2023-07-28T02:06:00;2.87;;;2.50;;
13374;SDS011;6756;51.354;15.754;2023-07-28T02:10:01;2.70;;;2.27;;
13374;SDS011;6756;51.354;15.754;2023-07-28T02:14:02;3.80;;;2.47;;
13374;SDS011;6756;51.354;15.754;2023-07-28T02:18:03;2.40;;;2.20;;
13374;SDS011;6756;51.354;15.754;2023-07-28T02:22:04;2.50;;;2.17;;
13374;SDS011;6756;51.354;15.754;2023-07-28T02:26:05;3.33;;;2.57;;
13374;SDS011;6756;51.354;15.754;2023-07-28T02:30:06;4.30;;;2.10;;
13374;SDS011;6756;51.354;15.754;2023-07-28T02:34:08;2.70;;;2.23;;
13374;SDS011;6756;51.354;15.754;2023-07-28T02:38:09;4.33;;;2.20;;
13374;SDS011;6756;51.354;15.754;2023-07-28T02:42:13;2.43;;;2.23;;
13374;SDS011;6756;51.354;15.754;2023-07-28T02:46:14;3.10;;;2.57;;
13374;SDS011;6756;51.354;15.754;2023-07-28T02:50:15;3.57;;;2.40;;
13374;SDS011;6756;51.354;15.754;2023-07-28T02:54:18;3.00;;;2.50;;
13374;SDS011;6756;51.354;15.754;2023-07-28T02:58:23;2.07;;;1.87;;
13374;SDS011;6756;51.354;15.754;2023-07-28T03:02:24;4.07;;;2.03;;
13374;SDS011;6756;51.354;15.754;2023-07-28T03:06:25;4.47;;;2.27;;
13374;SDS011;6756;51.354;15.754;2023-07-28T03:10:26;3.43;;;1.90;;
13374;SDS011;6756;51.354;15.754;2023-07-28T03:14:27;2.33;;;2.13;;
13374;SDS011;6756;51.354;15.754;2023-07-28T03:18:28;2.43;;;1.73;;
13374;SDS011;6756;51.354;15.754;2023-07-28T03:22:29;3.93;;;2.30;;
13374;SDS011;6756;51.354;15.754;2023-07-28T03:26:30;1.90;;;1.80;;
13374;SDS011;6756;51.354;15.754;2023-07-28T03:30:31;5.67;;;1.90;;
13374;SDS011;6756;51.354;15.754;2023-07-28T03:34:32;2.70;;;1.80;;
13374;SDS011;6756;51.354;15.754;2023-07-28T03:38:33;3.33;;;2.47;;
13374;SDS011;6756;51.354;15.754;2023-07-28T03:42:34;1.70;;;1.60;;
13374;SDS011;6756;51.354;15.754;2023-07-28T03:46:34;2.73;;;1.90;;
13374;SDS011;6756;51.354;15.754;2023-07-28T03:50:35;5.60;;;2.00;;
13374;SDS011;6756;51.354;15.754;2023-07-28T03:54:37;3.33;;;1.70;;
13374;SDS011;6756;51.354;15.754;2023-07-28T03:58:37;3.50;;;2.10;;
13374;SDS011;6756;51.354;15.754;2023-07-28T04:02:41;2.60;;;1.87;;
13374;SDS011;6756;51.354;15.754;2023-07-28T04:06:43;2.40;;;2.10;;
13374;SDS011;6756;51.354;15.754;2023-07-28T04:10:46;2.37;;;2.07;;
13374;SDS011;6756;51.354;15.754;2023-07-28T04:14:46;3.00;;;1.80;;
13374;SDS011;6756;51.354;15.754;2023-07-28T04:18:47;1.97;;;1.47;;
13374;SDS011;6756;51.354;15.754;2023-07-28T04:22:48;3.60;;;2.33;;
13374;SDS011;6756;51.354;15.754;2023-07-28T04:26:49;2.23;;;1.80;;
13374;SDS011;6756;51.354;15.754;2023-07-28T04:30:50;2.60;;;1.90;;
13374;SDS011;6756;51.354;15.754;2023-07-28T04:34:51;4.83;;;1.97;;
13374;SDS011;6756;51.354;15.754;2023-07-28T04:38:55;2.50;;;2.30;;
13374;SDS011;6756;51.354;15.754;2023-07-28T04:42:55;3.27;;;1.80;;
13374;SDS011;6756;51.354;15.754;2023-07-28T04:47:15;1.83;;;1.73;;
13374;SDS011;6756;51.354;15.754;2023-07-28T04:51:15;3.20;;;1.67;;
13374;SDS011;6756;51.354;15.754;2023-07-28T04:55:16;2.33;;;1.63;;
13374;SDS011;6756;51.354;15.754;2023-07-28T04:59:17;2.80;;;1.70;;
13374;SDS011;6756;51.354;15.754;2023-07-28T05:03:18;3.87;;;1.70;;
13374;SDS011;6756;51.354;15.754;2023-07-28T05:08:04;2.30;;;1.50;;
13374;SDS011;6756;51.354;15.754;2023-07-28T05:11:45;2.30;;;1.47;;
13374;SDS011;6756;51.354;15.754;2023-07-28T05:15:46;1.60;;;1.50;;
13374;SDS011;6756;51.354;15.754;2023-07-28T05:19:49;2.37;;;1.77;;
13374;SDS011;6756;51.354;15.754;2023-07-28T05:23:54;1.50;;;1.40;;
13374;SDS011;6756;51.354;15.754;2023-07-28T05:27:55;3.33;;;1.37;;
13374;SDS011;6756;51.354;15.754;2023-07-28T05:32:04;1.67;;;1.50;;
13374;SDS011;6756;51.354;15.754;2023-07-28T05:36:05;5.20;;;1.33;;
13374;SDS011;6756;51.354;15.754;2023-07-28T05:40:06;3.00;;;1.70;;
13374;SDS011;6756;51.354;15.754;2023-07-28T05:44:08;4.40;;;1.87;;
13374;SDS011;6756;51.354;15.754;2023-07-28T05:48:25;4.17;;;2.07;;
13374;SDS011;6756;51.354;15.754;2023-07-28T05:56:56;2.50;;;1.37;;
13374;SDS011;6756;51.354;15.754;2023-07-28T06:00:57;2.03;;;1.40;;
13374;SDS011;6756;51.354;15.754;2023-07-28T06:04:57;2.27;;;1.50;;
13374;SDS011;6756;51.354;15.754;2023-07-28T06:08:58;2.17;;;1.70;;
13374;SDS011;6756;51.354;15.754;2023-07-28T06:13:01;3.10;;;1.70;;
13374;SDS011;6756;51.354;15.754;2023-07-28T06:17:08;1.63;;;1.33;;
13374;SDS011;6756;51.354;15.754;2023-07-28T06:21:09;2.33;;;1.50;;
13374;SDS011;6756;51.354;15.754;2023-07-28T06:25:12;1.73;;;1.33;;
13374;SDS011;6756;51.354;15.754;2023-07-28T06:29:13;3.67;;;1.60;;
13374;SDS011;6756;51.354;15.754;2023-07-28T06:33:15;2.80;;;1.50;;
13374;SDS011;6756;51.354;15.754;2023-07-28T06:37:16;1.77;;;1.67;;
13374;SDS011;6756;51.354;15.754;2023-07-28T06:41:17;1.57;;;1.40;;
13374;SDS011;6756;51.354;15.754;2023-07-28T06:45:17;1.43;;;1.30;;
13374;SDS011;6756;51.354;15.754;2023-07-28T06:49:18;1.70;;;1.60;;
13374;SDS011;6756;51.354;15.754;2023-07-28T06:53:19;2.17;;;1.30;;
13374;SDS011;6756;51.354;15.754;2023-07-28T06:57:22;2.70;;;1.80;;
13374;SDS011;6756;51.354;15.754;2023-07-28T07:01:25;2.17;;;1.50;;
13374;SDS011;6756;51.354;15.754;2023-07-28T07:05:26;2.53;;;2.07;;
13374;SDS011;6756;51.354;15.754;2023-07-28T07:09:27;3.70;;;1.57;;
13374;SDS011;6756;51.354;15.754;2023-07-28T07:13:28;1.90;;;1.50;;
13374;SDS011;6756;51.354;15.754;2023-07-28T07:17:30;3.17;;;1.87;;
13374;SDS011;6756;51.354;15.754;2023-07-28T07:21:31;2.30;;;2.10;;
13374;SDS011;6756;51.354;15.754;2023-07-28T07:25:32;4.37;;;2.13;;
13374;SDS011;6756;51.354;15.754;2023-07-28T07:29:33;5.07;;;1.90;;
13374;SDS011;6756;51.354;15.754;2023-07-28T07:33:34;2.03;;;1.80;;
13374;SDS011;6756;51.354;15.754;2023-07-28T07:37:37;5.43;;;1.90;;
13374;SDS011;6756;51.354;15.754;2023-07-28T07:41:39;1.87;;;1.70;;
13374;SDS011;6756;51.354;15.754;2023-07-28T07:45:46;2.20;;;1.90;;
13374;SDS011;6756;51.354;15.754;2023-07-28T07:49:47;4.03;;;2.13;;
13374;SDS011;6756;51.354;15.754;2023-07-28T07:53:48;2.10;;;1.60;;
13374;SDS011;6756;51.354;15.754;2023-07-28T07:57:49;4.03;;;1.50;;
13374;SDS011;6756;51.354;15.754;2023-07-28T08:01:55;2.30;;;1.30;;
13374;SDS011;6756;51.354;15.754;2023-07-28T08:05:56;3.30;;;1.50;;
13374;SDS011;6756;51.354;15.754;2023-07-28T08:09:58;5.50;;;1.70;;
13374;SDS011;6756;51.354;15.754;2023-07-28T08:13:58;4.60;;;1.50;;
13374;SDS011;6756;51.354;15.754;2023-07-28T08:17:59;1.37;;;1.13;;
13374;SDS011;6756;51.354;15.754;2023-07-28T08:22:01;3.37;;;1.50;;
13374;SDS011;6756;51.354;15.754;2023-07-28T08:26:05;1.33;;;1.20;;
13374;SDS011;6756;51.354;15.754;2023-07-28T08:30:06;2.57;;;1.70;;
13374;SDS011;6756;51.354;15.754;2023-07-28T08:34:07;3.90;;;1.57;;
13374;SDS011;6756;51.354;15.754;2023-07-28T08:38:08;2.13;;;1.80;;
13374;SDS011;6756;51.354;15.754;2023-07-28T08:42:09;3.00;;;1.40;;
13374;SDS011;6756;51.354;15.754;2023-07-28T08:46:10;6.00;;;1.53;;
13374;SDS011;6756;51.354;15.754;2023-07-28T08:50:11;1.23;;;1.13;;
13374;SDS011;6756;51.354;15.754;2023-07-28T08:54:12;1.60;;;1.30;;
13374;SDS011;6756;51.354;15.754;2023-07-28T08:58:17;1.80;;;1.30;;
13374;SDS011;6756;51.354;15.754;2023-07-28T09:02:21;1.80;;;1.10;;
13374;SDS011;6756;51.354;15.754;2023-07-28T09:06:29;3.60;;;1.03;;
13374;SDS011;6756;51.354;15.754;2023-07-28T09:10:49;1.00;;;0.80;;
13374;SDS011;6756;51.354;15.754;2023-07-28T09:14:57;3.10;;;1.00;;
13374;SDS011;6756;51.354;15.754;2023-07-28T09:19:08;1.93;;;1.10;;
13374;SDS011;6756;51.354;15.754;2023-07-28T09:23:13;3.13;;;0.77;;
13374;SDS011;6756;51.354;15.754;2023-07-28T09:27:19;1.67;;;0.60;;
13374;SDS011;6756;51.354;15.754;2023-07-28T09:31:30;0.83;;;0.50;;
13374;SDS011;6756;51.354;15.754;2023-07-28T09:35:32;1.93;;;0.50;;
13374;SDS011;6756;51.354;15.754;2023-07-28T09:39:33;1.60;;;0.70;;
13374;SDS011;6756;51.354;15.754;2023-07-28T09:43:42;0.70;;;0.40;;
13374;SDS011;6756;51.354;15.754;2023-07-28T09:47:45;1.10;;;0.43;;
13374;SDS011;6756;51.354;15.754;2023-07-28T09:51:48;1.83;;;0.50;;
13374;SDS011;6756;51.354;15.754;2023-07-28T09:55:53;1.00;;;0.40;;
13374;SDS011;6756;51.354;15.754;2023-07-28T10:00:05;0.90;;;0.50;;
13374;SDS011;6756;51.354;15.754;2023-07-28T10:04:13;1.57;;;0.33;;
13374;SDS011;6756;51.354;15.754;2023-07-28T10:08:14;1.43;;;0.60;;
13374;SDS011;6756;51.354;15.754;2023-07-28T10:16:44;0.60;;;0.40;;
13374;SDS011;6756;51.354;15.754;2023-07-28T10:20:45;0.90;;;0.40;;
13374;SDS011;6756;51.354;15.754;2023-07-28T10:24:55;1.83;;;0.40;;
13374;SDS011;6756;51.354;15.754;2023-07-28T10:29:13;0.50;;;0.40;;
13374;SDS011;6756;51.354;15.754;2023-07-28T10:33:28;0.50;;;0.30;;
13374;SDS011;6756;51.354;15.754;2023-07-28T10:37:31;0.30;;;0.27;;
13374;SDS011;6756;51.354;15.754;2023-07-28T10:41:33;2.53;;;0.40;;
13374;SDS011;6756;51.354;15.754;2023-07-28T10:45:35;2.13;;;0.40;;
13374;SDS011;6756;51.354;15.754;2023-07-28T10:49:36;0.40;;;0.30;;
13374;SDS011;6756;51.354;15.754;2023-07-28T10:53:39;0.47;;;0.30;;
13374;SDS011;6756;51.354;15.754;2023-07-28T10:57:41;2.30;;;0.30;;
13374;SDS011;6756;51.354;15.754;2023-07-28T11:01:42;0.30;;;0.20;;
13374;SDS011;6756;51.354;15.754;2023-07-28T11:05:43;1.67;;;0.30;;
13374;SDS011;6756;51.354;15.754;2023-07-28T11:09:45;0.80;;;0.43;;
13374;SDS011;6756;51.354;15.754;2023-07-28T11:13:46;2.05;;;0.40;;
13374;SDS011;6756;51.354;15.754;2023-07-28T11:17:48;2.15;;;0.20;;
13374;SDS011;6756;51.354;15.754;2023-07-28T11:21:50;1.05;;;0.30;;
13374;SDS011;6756;51.354;15.754;2023-07-28T11:25:51;0.50;;;0.40;;
13374;SDS011;6756;51.354;15.754;2023-07-28T11:29:52;3.23;;;0.40;;
13374;SDS011;6756;51.354;15.754;2023-07-28T11:33:53;1.25;;;0.30;;
13374;SDS011;6756;51.354;15.754;2023-07-28T11:37:54;0.85;;;0.40;;
13374;SDS011;6756;51.354;15.754;2023-07-28T11:41:55;0.50;;;0.47;;
13374;SDS011;6756;51.354;15.754;2023-07-28T11:45:57;0.50;;;0.40;;
13374;SDS011;6756;51.354;15.754;2023-07-28T11:49:58;2.83;;;0.43;;
13374;SDS011;6756;51.354;15.754;2023-07-28T11:54:02;1.90;;;0.77;;
13374;SDS011;6756;51.354;15.754;2023-07-28T11:58:11;0.40;;;0.30;;
13374;SDS011;6756;51.354;15.754;2023-07-28T12:02:12;1.33;;;0.40;;
13374;SDS011;6756;51.354;15.754;2023-07-28T12:06:13;0.70;;;0.60;;
13374;SDS011;6756;51.354;15.754;2023-07-28T12:10:14;0.68;;;0.40;;
13374;SDS011;6756;51.354;15.754;2023-07-28T12:14:15;1.20;;;0.50;;
13374;SDS011;6756;51.354;15.754;2023-07-28T12:18:17;0.52;;;0.50;;
13374;SDS011;6756;51.354;15.754;2023-07-28T12:22:22;0.40;;;0.40;;
13374;SDS011;6756;51.354;15.754;2023-07-28T12:26:23;0.57;;;0.43;;
13374;SDS011;6756;51.354;15.754;2023-07-28T12:30:24;1.83;;;0.50;;
13374;SDS011;6756;51.354;15.754;2023-07-28T12:34:25;1.20;;;0.40;;
13374;SDS011;6756;51.354;15.754;2023-07-28T12:38:25;0.73;;;0.43;;
13374;SDS011;6756;51.354;15.754;2023-07-28T12:42:26;0.40;;;0.40;;
13374;SDS011;6756;51.354;15.754;2023-07-28T12:46:27;1.02;;;0.40;;
13374;SDS011;6756;51.354;15.754;2023-07-28T12:50:28;1.02;;;0.52;;
13374;SDS011;6756;51.354;15.754;2023-07-28T12:54:29;1.02;;;0.50;;
13374;SDS011;6756;51.354;15.754;2023-07-28T12:58:33;1.23;;;0.40;;
13374;SDS011;6756;51.354;15.754;2023-07-28T13:02:34;6.13;;;0.52;;
13374;SDS011;6756;51.354;15.754;2023-07-28T13:06:35;0.50;;;0.40;;
13374;SDS011;6756;51.354;15.754;2023-07-28T13:10:39;0.60;;;0.50;;
13374;SDS011;6756;51.354;15.754;2023-07-28T13:14:40;0.70;;;0.43;;
13374;SDS011;6756;51.354;15.754;2023-07-28T13:18:44;0.75;;;0.30;;
13374;SDS011;6756;51.354;15.754;2023-07-28T13:22:45;0.60;;;0.40;;
13374;SDS011;6756;51.354;15.754;2023-07-28T13:26:45;0.80;;;0.50;;
13374;SDS011;6756;51.354;15.754;2023-07-28T13:30:46;1.17;;;0.40;;
13374;SDS011;6756;51.354;15.754;2023-07-28T13:34:47;1.17;;;0.38;;
13374;SDS011;6756;51.354;15.754;2023-07-28T13:38:48;2.63;;;0.50;;
13374;SDS011;6756;51.354;15.754;2023-07-28T13:42:49;1.13;;;0.60;;
13374;SDS011;6756;51.354;15.754;2023-07-28T13:46:50;0.40;;;0.30;;
13374;SDS011;6756;51.354;15.754;2023-07-28T13:50:50;0.50;;;0.45;;
13374;SDS011;6756;51.354;15.754;2023-07-28T13:54:51;0.40;;;0.30;;
13374;SDS011;6756;51.354;15.754;2023-07-28T13:58:52;0.82;;;0.38;;
13374;SDS011;6756;51.354;15.754;2023-07-28T14:02:53;0.82;;;0.50;;
13374;SDS011;6756;51.354;15.754;2023-07-28T14:06:54;0.43;;;0.40;;
13374;SDS011;6756;51.354;15.754;2023-07-28T14:10:55;0.93;;;0.35;;
13374;SDS011;6756;51.354;15.754;2023-07-28T14:14:55;1.90;;;0.50;;
13374;SDS011;6756;51.354;15.754;2023-07-28T14:18:56;0.68;;;0.40;;
13374;SDS011;6756;51.354;15.754;2023-07-28T14:22:59;0.52;;;0.30;;
13374;SDS011;6756;51.354;15.754;2023-07-28T14:27:06;0.98;;;0.60;;
13374;SDS011;6756;51.354;15.754;2023-07-28T14:31:06;0.82;;;0.50;;
13374;SDS011;6756;51.354;15.754;2023-07-28T14:35:07;0.95;;;0.40;;
13374;SDS011;6756;51.354;15.754;2023-07-28T14:39:08;0.60;;;0.50;;
13374;SDS011;6756;51.354;15.754;2023-07-28T14:43:09;0.73;;;0.40;;
13374;SDS011;6756;51.354;15.754;2023-07-28T14:47:10;0.55;;;0.40;;
13374;SDS011;6756;51.354;15.754;2023-07-28T14:51:10;1.05;;;0.40;;
13374;SDS011;6756;51.354;15.754;2023-07-28T14:55:11;0.50;;;0.35;;
13374;SDS011;6756;51.354;15.754;2023-07-28T14:59:12;1.48;;;0.55;;
13374;SDS011;6756;51.354;15.754;2023-07-28T15:03:13;1.92;;;0.40;;
13374;SDS011;6756;51.354;15.754;2023-07-28T15:07:14;0.80;;;0.60;;
13374;SDS011;6756;51.354;15.754;2023-07-28T15:11:18;0.70;;;0.50;;
13374;SDS011;6756;51.354;15.754;2023-07-28T15:15:18;0.55;;;0.55;;
13374;SDS011;6756;51.354;15.754;2023-07-28T15:19:19;1.23;;;0.57;;
13374;SDS011;6756;51.354;15.754;2023-07-28T15:23:22;0.70;;;0.50;;
13374;SDS011;6756;51.354;15.754;2023-07-28T15:27:26;1.20;;;0.60;;
13374;SDS011;6756;51.354;15.754;2023-07-28T15:31:27;2.10;;;0.80;;
13374;SDS011;6756;51.354;15.754;2023-07-28T15:35:28;1.13;;;0.50;;
13374;SDS011;6756;51.354;15.754;2023-07-28T15:39:29;0.80;;;0.60;;
13374;SDS011;6756;51.354;15.754;2023-07-28T15:43:33;1.42;;;0.73;;
13374;SDS011;6756;51.354;15.754;2023-07-28T15:47:34;1.13;;;0.60;;
13374;SDS011;6756;51.354;15.754;2023-07-28T15:51:36;3.38;;;0.70;;
13374;SDS011;6756;51.354;15.754;2023-07-28T15:55:43;1.02;;;0.75;;
13374;SDS011;6756;51.354;15.754;2023-07-28T15:59:45;2.78;;;0.88;;
13374;SDS011;6756;51.354;15.754;2023-07-28T16:03:47;1.13;;;0.90;;
13374;SDS011;6756;51.354;15.754;2023-07-28T16:07:48;0.82;;;0.57;;
13374;SDS011;6756;51.354;15.754;2023-07-28T16:11:49;2.40;;;1.02;;
13374;SDS011;6756;51.354;15.754;2023-07-28T16:15:50;1.20;;;0.82;;
13374;SDS011;6756;51.354;15.754;2023-07-28T16:19:51;1.70;;;0.95;;
13374;SDS011;6756;51.354;15.754;2023-07-28T16:23:52;4.13;;;0.77;;
13374;SDS011;6756;51.354;15.754;2023-07-28T16:27:53;1.30;;;0.85;;
13374;SDS011;6756;51.354;15.754;2023-07-28T16:31:57;2.03;;;0.80;;
13374;SDS011;6756;51.354;15.754;2023-07-28T16:36:01;1.52;;;0.90;;
13374;SDS011;6756;51.354;15.754;2023-07-28T16:40:03;2.90;;;1.00;;
13374;SDS011;6756;51.354;15.754;2023-07-28T16:44:04;4.35;;;1.00;;
13374;SDS011;6756;51.354;15.754;2023-07-28T16:48:05;2.65;;;0.82;;
13374;SDS011;6756;51.354;15.754;2023-07-28T16:52:06;2.88;;;0.80;;
13374;SDS011;6756;51.354;15.754;2023-07-28T16:56:07;1.17;;;0.80;;
13374;SDS011;6756;51.354;15.754;2023-07-28T17:00:09;1.93;;;1.07;;
13374;SDS011;6756;51.354;15.754;2023-07-28T17:04:10;1.97;;;0.90;;
13374;SDS011;6756;51.354;15.754;2023-07-28T17:08:11;1.97;;;1.10;;
13374;SDS011;6756;51.354;15.754;2023-07-28T17:12:12;1.10;;;1.00;;
13374;SDS011;6756;51.354;15.754;2023-07-28T17:16:13;3.27;;;1.13;;
13374;SDS011;6756;51.354;15.754;2023-07-28T17:20:15;1.47;;;1.10;;
13374;SDS011;6756;51.354;15.754;2023-07-28T17:24:16;1.10;;;1.00;;
13374;SDS011;6756;51.354;15.754;2023-07-28T17:28:17;3.00;;;1.10;;
13374;SDS011;6756;51.354;15.754;2023-07-28T17:32:18;2.97;;;1.20;;
13374;SDS011;6756;51.354;15.754;2023-07-28T17:36:19;1.83;;;1.40;;
13374;SDS011;6756;51.354;15.754;2023-07-28T17:40:20;3.07;;;2.07;;
13374;SDS011;6756;51.354;15.754;2023-07-28T17:44:21;4.47;;;1.63;;
13374;SDS011;6756;51.354;15.754;2023-07-28T17:48:22;2.57;;;1.60;;
13374;SDS011;6756;51.354;15.754;2023-07-28T17:52:23;1.53;;;1.20;;
13374;SDS011;6756;51.354;15.754;2023-07-28T17:56:27;2.83;;;1.00;;
13374;SDS011;6756;51.354;15.754;2023-07-28T18:00:28;2.27;;;0.90;;
13374;SDS011;6756;51.354;15.754;2023-07-28T18:04:29;4.07;;;1.30;;
13374;SDS011;6756;51.354;15.754;2023-07-28T18:08:30;3.23;;;2.47;;
13374;SDS011;6756;51.354;15.754;2023-07-28T18:12:31;2.10;;;1.60;;
13374;SDS011;6756;51.354;15.754;2023-07-28T18:16:32;2.00;;;1.33;;
13374;SDS011;6756;51.354;15.754;2023-07-28T18:20:33;3.53;;;2.10;;
13374;SDS011;6756;51.354;15.754;2023-07-28T18:24:34;3.80;;;2.27;;
13374;SDS011;6756;51.354;15.754;2023-07-28T18:28:34;3.30;;;2.23;;
13374;SDS011;6756;51.354;15.754;2023-07-28T18:32:35;2.33;;;2.10;;
13374;SDS011;6756;51.354;15.754;2023-07-28T18:36:36;2.27;;;1.67;;
13374;SDS011;6756;51.354;15.754;2023-07-28T18:40:37;4.83;;;2.30;;
13374;SDS011;6756;51.354;15.754;2023-07-28T18:44:38;5.53;;;2.60;;
13374;SDS011;6756;51.354;15.754;2023-07-28T18:48:38;3.17;;;2.30;;
13374;SDS011;6756;51.354;15.754;2023-07-28T18:52:39;2.30;;;2.00;;
13374;SDS011;6756;51.354;15.754;2023-07-28T18:56:55;2.30;;;2.10;;
13374;SDS011;6756;51.354;15.754;2023-07-28T19:00:56;1.73;;;1.63;;
13374;SDS011;6756;51.354;15.754;2023-07-28T19:04:59;1.77;;;1.60;;
13374;SDS011;6756;51.354;15.754;2023-07-28T19:09:03;2.87;;;1.73;;
13374;SDS011;6756;51.354;15.754;2023-07-28T19:13:04;1.53;;;1.43;;
13374;SDS011;6756;51.354;15.754;2023-07-28T19:17:05;1.67;;;1.50;;
13374;SDS011;6756;51.354;15.754;2023-07-28T19:21:06;2.20;;;1.37;;
13374;SDS011;6756;51.354;15.754;2023-07-28T19:25:08;2.03;;;1.67;;
13374;SDS011;6756;51.354;15.754;2023-07-28T19:29:08;1.60;;;1.50;;
13374;SDS011;6756;51.354;15.754;2023-07-28T19:33:09;2.20;;;1.40;;
13374;SDS011;6756;51.354;15.754;2023-07-28T19:37:11;1.53;;;1.30;;
13374;SDS011;6756;51.354;15.754;2023-07-28T19:41:12;1.50;;;1.40;;
13374;SDS011;6756;51.354;15.754;2023-07-28T19:45:17;1.50;;;1.40;;
13374;SDS011;6756;51.354;15.754;2023-07-28T19:49:18;1.90;;;1.37;;
13374;SDS011;6756;51.354;15.754;2023-07-28T19:53:19;2.30;;;1.70;;
13374;SDS011;6756;51.354;15.754;2023-07-28T19:57:22;2.30;;;1.53;;
13374;SDS011;6756;51.354;15.754;2023-07-28T20:01:24;2.00;;;1.60;;
13374;SDS011;6756;51.354;15.754;2023-07-28T20:05:30;1.87;;;1.67;;
13374;SDS011;6756;51.354;15.754;2023-07-28T20:09:30;1.63;;;1.53;;
13374;SDS011;6756;51.354;15.754;2023-07-28T20:13:32;1.73;;;1.50;;
13374;SDS011;6756;51.354;15.754;2023-07-28T20:17:33;2.63;;;1.90;;
13374;SDS011;6756;51.354;15.754;2023-07-28T20:21:34;1.67;;;1.50;;
13374;SDS011;6756;51.354;15.754;2023-07-28T20:25:38;2.87;;;1.80;;
13374;SDS011;6756;51.354;15.754;2023-07-28T20:29:39;3.03;;;1.63;;
13374;SDS011;6756;51.354;15.754;2023-07-28T20:33:41;1.90;;;1.80;;
13374;SDS011;6756;51.354;15.754;2023-07-28T20:37:42;1.60;;;1.50;;
13374;SDS011;6756;51.354;15.754;2023-07-28T20:41:43;2.17;;;2.00;;
13374;SDS011;6756;51.354;15.754;2023-07-28T20:45:44;1.73;;;1.60;;
13374;SDS011;6756;51.354;15.754;2023-07-28T20:49:45;1.80;;;1.70;;
13374;SDS011;6756;51.354;15.754;2023-07-28T20:53:48;1.40;;;1.30;;
13374;SDS011;6756;51.354;15.754;2023-07-28T20:57:48;1.70;;;1.60;;
13374;SDS011;6756;51.354;15.754;2023-07-28T21:01:49;2.10;;;1.87;;
13374;SDS011;6756;51.354;15.754;2023-07-28T21:05:50;2.00;;;1.90;;
13374;SDS011;6756;51.354;15.754;2023-07-28T21:09:53;1.80;;;1.70;;
13374;SDS011;6756;51.354;15.754;2023-07-28T21:13:58;2.77;;;2.00;;
13374;SDS011;6756;51.354;15.754;2023-07-28T21:18:00;2.03;;;1.93;;
13374;SDS011;6756;51.354;15.754;2023-07-28T21:22:01;2.50;;;2.10;;
13374;SDS011;6756;51.354;15.754;2023-07-28T21:26:03;2.30;;;2.10;;
13374;SDS011;6756;51.354;15.754;2023-07-28T21:30:07;2.50;;;2.30;;
13374;SDS011;6756;51.354;15.754;2023-07-28T21:34:09;2.23;;;2.03;;
13374;SDS011;6756;51.354;15.754;2023-07-28T21:38:12;2.37;;;2.17;;
13374;SDS011;6756;51.354;15.754;2023-07-28T21:42:13;2.10;;;2.00;;
13374;SDS011;6756;51.354;15.754;2023-07-28T21:46:14;2.77;;;2.20;;
13374;SDS011;6756;51.354;15.754;2023-07-28T21:50:18;2.17;;;2.00;;
13374;SDS011;6756;51.354;15.754;2023-07-28T21:54:19;2.17;;;1.97;;
13374;SDS011;6756;51.354;15.754;2023-07-28T21:58:23;2.00;;;1.90;;
13374;SDS011;6756;51.354;15.754;2023-07-28T22:02:24;2.20;;;2.00;;
13374;SDS011;6756;51.354;15.754;2023-07-28T22:06:28;2.23;;;2.03;;
13374;SDS011;6756;51.354;15.754;2023-07-28T22:10:29;2.20;;;2.00;;
13374;SDS011;6756;51.354;15.754;2023-07-28T22:14:30;2.23;;;2.03;;
13374;SDS011;6756;51.354;15.754;2023-07-28T22:18:31;2.30;;;2.10;;
13374;SDS011;6756;51.354;15.754;2023-07-28T22:22:32;2.23;;;2.03;;
13374;SDS011;6756;51.354;15.754;2023-07-28T22:26:34;2.10;;;2.00;;
13374;SDS011;6756;51.354;15.754;2023-07-28T22:30:35;2.27;;;2.07;;
13374;SDS011;6756;51.354;15.754;2023-07-28T22:34:35;2.40;;;2.10;;
13374;SDS011;6756;51.354;15.754;2023-07-28T22:38:36;2.77;;;2.20;;
13374;SDS011;6756;51.354;15.754;2023-07-28T22:42:37;3.00;;;2.30;;
13374;SDS011;6756;51.354;15.754;2023-07-28T22:46:38;2.20;;;2.10;;
13374;SDS011;6756;51.354;15.754;2023-07-28T22:50:39;3.47;;;2.50;;
13374;SDS011;6756;51.354;15.754;2023-07-28T22:54:40;2.67;;;2.47;;
13374;SDS011;6756;51.354;15.754;2023-07-28T22:58:47;2.60;;;2.40;;
13374;SDS011;6756;51.354;15.754;2023-07-28T23:02:52;2.60;;;2.40;;
13374;SDS011;6756;51.354;15.754;2023-07-28T23:06:53;2.60;;;2.33;;
13374;SDS011;6756;51.354;15.754;2023-07-28T23:10:54;2.57;;;2.37;;
13374;SDS011;6756;51.354;15.754;2023-07-28T23:14:54;2.83;;;2.63;;
13374;SDS011;6756;51.354;15.754;2023-07-28T23:18:55;3.00;;;2.80;;
13374;SDS011;6756;51.354;15.754;2023-07-28T23:22:56;3.53;;;2.37;;
13374;SDS011;6756;51.354;15.754;2023-07-28T23:26:57;2.60;;;2.40;;
13374;SDS011;6756;51.354;15.754;2023-07-28T23:31:14;2.80;;;2.60;;
13374;SDS011;6756;51.354;15.754;2023-07-28T23:35:15;2.93;;;2.63;;
13374;SDS011;6756;51.354;15.754;2023-07-28T23:39:20;2.03;;;1.93;;
13374;SDS011;6756;51.354;15.754;2023-07-28T23:43:20;4.43;;;2.03;;
13374;SDS011;6756;51.354;15.754;2023-07-28T23:47:21;2.57;;;2.37;;
13374;SDS011;6756;51.354;15.754;2023-07-28T23:51:22;2.90;;;2.60;;
13374;SDS011;6756;51.354;15.754;2023-07-28T23:55:23;2.10;;;2.00;;
13374;SDS011;6756;51.354;15.754;2023-07-28T23:59:24;2.63;;;2.43;;
